Florianopolis, Brazil
Current Conditions -  °F | °C
As of 10:00 AM on Friday 28 Nov 2014 (Local Time) from SBFL Reporting Station
Broken Clouds Broken Clouds  
Wind Chill: 77°   Ceiling: 4000
Heat Index: 79°   Visibility: 6mi
Dew Point: 66°   Wind: 3mph
Humidity: 69%   Direction: 260°W
Pressure: 30.03"   Gusts: NA
Location:  27.6°S, 48.54°W
Report Text: SBFL 281200Z 26003KT 9999 FEW010 BKN040 25/19 Q1017
Loading
Personal Weather Stations






























Interactive Weather Map New forecast layout! Learn more

10-Day Weather Forecast

Advertisements
Track Severe Weather on mobile